DLH888 LFPG-EDDB
Flight info
| Callsign | DLH888 |
|---|---|
| Flight time | 1h 11m |
| Altitude | 33000 |
| Route | RANUX6G RANUX DCT VALEK/N0482F390 DCT LIPNI UN858 LIMGO DCT MASEK T278 KLF KLF06L |
| Aircraft | B77W/H-SDE1E2E3FGHIJ2J3J4J5M1RWXY/LB1D1 |
Departure
| Time | 2026-05-08 18:54 |
|---|---|
| Airport | Charles de Gaulle International Airport (LFPG) |
Arrival
| Time | 2026-05-08 20:05 |
|---|---|
| Airport | Berlin Brandenburg Airport (EDDB) |
| Time | Latitude | Longitude | Altitude | Speed | Heading |
|---|---|---|---|---|---|
| 2026-05-08 18:32 | 49.01549 | 2.51180 | 359 ft | 0 kts | 356° |
| 2026-05-08 18:47 | 49.01536 | 2.51181 | 366 ft | 3 kts | 356° |
| 2026-05-08 18:47 | 49.01517 | 2.51184 | 363 ft | 3 kts | 6° |
| 2026-05-08 18:48 | 49.01497 | 2.51174 | 368 ft | 3 kts | 45° |
| 2026-05-08 18:48 | 49.01487 | 2.51148 | 367 ft | 3 kts | 77° |
| 2026-05-08 18:48 | 49.01484 | 2.51127 | 367 ft | 0 kts | 77° |
| 2026-05-08 18:51 | 49.01484 | 2.51140 | 365 ft | 4 kts | 88° |
| 2026-05-08 18:51 | 49.01485 | 2.51223 | 366 ft | 11 kts | 77° |
| 2026-05-08 18:51 | 49.01567 | 2.51283 | 364 ft | 18 kts | 359° |
| 2026-05-08 18:52 | 49.01710 | 2.51284 | 363 ft | 23 kts | 351° |
| 2026-05-08 18:52 | 49.01886 | 2.51261 | 367 ft | 23 kts | 348° |
| 2026-05-08 18:52 | 49.01918 | 2.51262 | 366 ft | 0 kts | 7° |
| 2026-05-08 18:53 | 49.01927 | 2.51263 | 367 ft | 5 kts | 7° |
| 2026-05-08 18:53 | 49.02003 | 2.51295 | 368 ft | 17 kts | 27° |
| 2026-05-08 18:53 | 49.02049 | 2.51346 | 365 ft | 0 kts | 66° |
| 2026-05-08 18:53 | 49.02049 | 2.51347 | 365 ft | 1 kts | 67° |
| 2026-05-08 18:54 | 49.02088 | 2.51846 | 358 ft | 110 kts | 82° |
| 2026-05-08 18:54 | 49.02154 | 2.53655 | 454 ft | 222 kts | 89° |
| 2026-05-08 18:54 | 49.02244 | 2.55934 | 2353 ft | 215 kts | 83° |
| 2026-05-08 18:54 | 49.02408 | 2.58345 | 3513 ft | 239 kts | 84° |
| 2026-05-08 18:55 | 49.02719 | 2.63621 | 5560 ft | 260 kts | 85° |
| 2026-05-08 18:55 | 49.02872 | 2.66441 | 6559 ft | 272 kts | 86° |
| 2026-05-08 18:55 | 49.03026 | 2.69366 | 7604 ft | 280 kts | 86° |
| 2026-05-08 18:56 | 49.03181 | 2.72369 | 8637 ft | 289 kts | 86° |
| 2026-05-08 18:56 | 49.03332 | 2.75469 | 9705 ft | 297 kts | 87° |
| 2026-05-08 18:56 | 49.03484 | 2.78652 | 10616 ft | 309 kts | 87° |
| 2026-05-08 18:56 | 49.03646 | 2.82060 | 11043 ft | 339 kts | 86° |
| 2026-05-08 18:57 | 49.03823 | 2.85810 | 11431 ft | 367 kts | 86° |
| 2026-05-08 18:57 | 49.03946 | 2.88417 | 12049 ft | 374 kts | 86° |
| 2026-05-08 18:57 | 49.04203 | 2.93777 | 13536 ft | 383 kts | 85° |
| 2026-05-08 18:57 | 49.04468 | 2.97843 | 14674 ft | 386 kts | 84° |
| 2026-05-08 18:58 | 49.04773 | 3.01880 | 15794 ft | 389 kts | 84° |
| 2026-05-08 18:58 | 49.05096 | 3.06028 | 16835 ft | 396 kts | 83° |
| 2026-05-08 18:58 | 49.05495 | 3.10204 | 17836 ft | 402 kts | 78° |
| 2026-05-08 18:58 | 49.06262 | 3.14339 | 18790 ft | 408 kts | 69° |
| 2026-05-08 18:59 | 49.07365 | 3.18294 | 19687 ft | 412 kts | 64° |
| 2026-05-08 18:59 | 49.08578 | 3.22324 | 20592 ft | 417 kts | 63° |
| 2026-05-08 18:59 | 49.09795 | 3.26378 | 21473 ft | 423 kts | 63° |
| 2026-05-08 18:59 | 49.11008 | 3.30439 | 22326 ft | 429 kts | 62° |
| 2026-05-08 19:00 | 49.12248 | 3.34618 | 23196 ft | 434 kts | 62° |
| 2026-05-08 19:00 | 49.13493 | 3.38842 | 23980 ft | 439 kts | 61° |
| 2026-05-08 19:00 | 49.14750 | 3.43123 | 24636 ft | 445 kts | 61° |
| 2026-05-08 19:00 | 49.16025 | 3.47481 | 25336 ft | 450 kts | 61° |
| 2026-05-08 19:01 | 49.17305 | 3.51871 | 26017 ft | 455 kts | 61° |
| 2026-05-08 19:01 | 49.18595 | 3.56308 | 26699 ft | 459 kts | 61° |
| 2026-05-08 19:01 | 49.19896 | 3.60794 | 27389 ft | 463 kts | 61° |
| 2026-05-08 19:01 | 49.21208 | 3.65321 | 28018 ft | 468 kts | 61° |
| 2026-05-08 19:02 | 49.22549 | 3.69958 | 28617 ft | 473 kts | 61° |
| 2026-05-08 19:02 | 49.23881 | 3.74575 | 29364 ft | 474 kts | 60° |
| 2026-05-08 19:02 | 49.25201 | 3.79171 | 30420 ft | 467 kts | 60° |
| 2026-05-08 19:02 | 49.26492 | 3.83683 | 31371 ft | 461 kts | 60° |
| 2026-05-08 19:03 | 49.27765 | 3.88123 | 31986 ft | 462 kts | 60° |
| 2026-05-08 19:03 | 49.29060 | 3.92631 | 32493 ft | 465 kts | 60° |
| 2026-05-08 19:03 | 49.30363 | 3.97177 | 33015 ft | 467 kts | 60° |
| 2026-05-08 19:04 | 49.32904 | 4.06078 | 33018 ft | 466 kts | 60° |
| 2026-05-08 19:04 | 49.35474 | 4.15143 | 33006 ft | 463 kts | 60° |
| 2026-05-08 19:05 | 49.38049 | 4.24240 | 33012 ft | 464 kts | 60° |
| 2026-05-08 19:05 | 49.40223 | 4.33581 | 33018 ft | 473 kts | 73° |
| 2026-05-08 19:06 | 49.40496 | 4.43782 | 33020 ft | 487 kts | 93° |
| 2026-05-08 19:06 | 49.39894 | 4.48953 | 33047 ft | 498 kts | 99° |
| 2026-05-08 19:06 | 49.39067 | 4.54180 | 33031 ft | 510 kts | 101° |
| 2026-05-08 19:07 | 49.37254 | 4.64887 | 33000 ft | 516 kts | 97° |
| 2026-05-08 19:07 | 49.37076 | 4.70207 | 33014 ft | 487 kts | 78° |
| 2026-05-08 19:07 | 49.37781 | 4.75152 | 33006 ft | 465 kts | 65° |
| 2026-05-08 19:08 | 49.40467 | 4.84290 | 33037 ft | 479 kts | 58° |
| 2026-05-08 19:08 | 49.43418 | 4.93713 | 33019 ft | 499 kts | 60° |
| 2026-05-08 19:09 | 49.46308 | 5.03159 | 33027 ft | 511 kts | 61° |
| 2026-05-08 19:09 | 49.49345 | 5.13185 | 33009 ft | 519 kts | 61° |
| 2026-05-08 19:10 | 49.52381 | 5.23243 | 33002 ft | 518 kts | 61° |
| 2026-05-08 19:10 | 49.55414 | 5.33310 | 33011 ft | 517 kts | 61° |
| 2026-05-08 19:11 | 49.58433 | 5.43355 | 33023 ft | 518 kts | 62° |
| 2026-05-08 19:11 | 49.61450 | 5.53440 | 33025 ft | 519 kts | 62° |
| 2026-05-08 19:12 | 49.64460 | 5.63541 | 33007 ft | 518 kts | 63° |
| 2026-05-08 19:12 | 49.67455 | 5.73643 | 33011 ft | 516 kts | 63° |
| 2026-05-08 19:13 | 49.70434 | 5.83727 | 33017 ft | 516 kts | 63° |
| 2026-05-08 19:13 | 49.73400 | 5.93809 | 33021 ft | 516 kts | 64° |
| 2026-05-08 19:14 | 49.76224 | 6.03445 | 33022 ft | 517 kts | 64° |
| 2026-05-08 19:14 | 49.79198 | 6.13640 | 33020 ft | 517 kts | 64° |
| 2026-05-08 19:15 | 49.82151 | 6.23803 | 33029 ft | 517 kts | 64° |
| 2026-05-08 19:15 | 49.85068 | 6.33890 | 33016 ft | 515 kts | 64° |
| 2026-05-08 19:16 | 49.88008 | 6.44093 | 33025 ft | 515 kts | 65° |
| 2026-05-08 19:16 | 49.90921 | 6.54244 | 33031 ft | 516 kts | 65° |
| 2026-05-08 19:17 | 49.93821 | 6.64397 | 33029 ft | 517 kts | 65° |
| 2026-05-08 19:17 | 49.96725 | 6.74609 | 33027 ft | 517 kts | 65° |
| 2026-05-08 19:18 | 49.99623 | 6.84842 | 33034 ft | 517 kts | 65° |
| 2026-05-08 19:18 | 50.02508 | 6.95072 | 33043 ft | 517 kts | 66° |
| 2026-05-08 19:19 | 50.05006 | 7.05175 | 33056 ft | 517 kts | 70° |
| 2026-05-08 19:19 | 50.07319 | 7.15793 | 33043 ft | 517 kts | 71° |
| 2026-05-08 19:20 | 50.09620 | 7.26411 | 33051 ft | 517 kts | 71° |
| 2026-05-08 19:20 | 50.11958 | 7.37006 | 33037 ft | 518 kts | 71° |
| 2026-05-08 19:21 | 50.14314 | 7.47613 | 33052 ft | 518 kts | 70° |
| 2026-05-08 19:21 | 50.16669 | 7.58256 | 33049 ft | 519 kts | 71° |
| 2026-05-08 19:22 | 50.19006 | 7.68895 | 33056 ft | 518 kts | 71° |
| 2026-05-08 19:22 | 50.21330 | 7.79534 | 33053 ft | 517 kts | 71° |
| 2026-05-08 19:23 | 50.23641 | 7.90170 | 33049 ft | 517 kts | 71° |
| 2026-05-08 19:23 | 50.25852 | 8.00402 | 33055 ft | 518 kts | 71° |
| 2026-05-08 19:24 | 50.28137 | 8.11029 | 33060 ft | 518 kts | 71° |
| 2026-05-08 19:24 | 50.30054 | 8.19982 | 33052 ft | 519 kts | 71° |
| 2026-05-08 19:25 | 50.32335 | 8.30694 | 33064 ft | 519 kts | 71° |
| 2026-05-08 19:25 | 50.34602 | 8.41389 | 33061 ft | 520 kts | 71° |
| 2026-05-08 19:26 | 50.36870 | 8.52155 | 33058 ft | 520 kts | 71° |
| 2026-05-08 19:26 | 50.39124 | 8.62906 | 33058 ft | 519 kts | 71° |
| 2026-05-08 19:27 | 50.41369 | 8.73670 | 33060 ft | 518 kts | 72° |
| 2026-05-08 19:27 | 50.43597 | 8.84414 | 33058 ft | 518 kts | 72° |
| 2026-05-08 19:28 | 50.45804 | 8.95110 | 33069 ft | 518 kts | 72° |
| 2026-05-08 19:28 | 50.47933 | 9.05488 | 33066 ft | 518 kts | 72° |
| 2026-05-08 19:29 | 50.50138 | 9.16289 | 33072 ft | 518 kts | 72° |
| 2026-05-08 19:29 | 50.52326 | 9.27072 | 33077 ft | 518 kts | 72° |
| 2026-05-08 19:30 | 50.54503 | 9.37856 | 33066 ft | 517 kts | 72° |
| 2026-05-08 19:30 | 50.56667 | 9.48631 | 33081 ft | 517 kts | 72° |
| 2026-05-08 19:31 | 50.58846 | 9.59463 | 33075 ft | 518 kts | 70° |
| 2026-05-08 19:31 | 50.61853 | 9.69740 | 33071 ft | 517 kts | 58° |
| 2026-05-08 19:32 | 50.65628 | 9.79294 | 33091 ft | 517 kts | 57° |
| 2026-05-08 19:32 | 50.69442 | 9.88928 | 33076 ft | 518 kts | 58° |
| 2026-05-08 19:33 | 50.73211 | 9.98612 | 33093 ft | 518 kts | 58° |
| 2026-05-08 19:33 | 50.76830 | 10.08016 | 33090 ft | 519 kts | 58° |
| 2026-05-08 19:34 | 50.80569 | 10.17780 | 33090 ft | 519 kts | 58° |
| 2026-05-08 19:34 | 50.84296 | 10.27541 | 33091 ft | 518 kts | 58° |
| 2026-05-08 19:35 | 50.88016 | 10.37316 | 33098 ft | 518 kts | 58° |
| 2026-05-08 19:35 | 50.91726 | 10.47099 | 33096 ft | 518 kts | 58° |
| 2026-05-08 19:36 | 50.95435 | 10.56916 | 33114 ft | 518 kts | 58° |
| 2026-05-08 19:36 | 50.99134 | 10.66748 | 33118 ft | 519 kts | 59° |
| 2026-05-08 19:37 | 51.02818 | 10.76575 | 33124 ft | 519 kts | 59° |
| 2026-05-08 19:37 | 51.06502 | 10.86438 | 33124 ft | 519 kts | 59° |
| 2026-05-08 19:38 | 51.10175 | 10.96312 | 33121 ft | 520 kts | 59° |
| 2026-05-08 19:38 | 51.13730 | 11.05906 | 33124 ft | 520 kts | 59° |
| 2026-05-08 19:39 | 51.17401 | 11.15847 | 33121 ft | 521 kts | 59° |
| 2026-05-08 19:39 | 51.21061 | 11.25803 | 33118 ft | 521 kts | 59° |
| 2026-05-08 19:40 | 51.24698 | 11.35731 | 32944 ft | 522 kts | 59° |
| 2026-05-08 19:40 | 51.26551 | 11.40804 | 32220 ft | 521 kts | 59° |
| 2026-05-08 19:40 | 51.28360 | 11.45768 | 31391 ft | 515 kts | 59° |
| 2026-05-08 19:40 | 51.30136 | 11.50651 | 30613 ft | 508 kts | 59° |
| 2026-05-08 19:41 | 51.31899 | 11.55508 | 29751 ft | 503 kts | 59° |
| 2026-05-08 19:41 | 51.33616 | 11.60246 | 29038 ft | 494 kts | 59° |
| 2026-05-08 19:41 | 51.35344 | 11.65024 | 28377 ft | 486 kts | 59° |
| 2026-05-08 19:41 | 51.37002 | 11.69615 | 27748 ft | 479 kts | 59° |
| 2026-05-08 19:42 | 51.38656 | 11.74205 | 27107 ft | 473 kts | 59° |
| 2026-05-08 19:42 | 51.40286 | 11.78732 | 26486 ft | 467 kts | 59° |
| 2026-05-08 19:42 | 51.41899 | 11.83222 | 25887 ft | 462 kts | 59° |
| 2026-05-08 19:42 | 51.43490 | 11.87660 | 25291 ft | 457 kts | 59° |
| 2026-05-08 19:43 | 51.45064 | 11.92057 | 24724 ft | 453 kts | 59° |
| 2026-05-08 19:43 | 51.46627 | 11.96431 | 24150 ft | 449 kts | 59° |
| 2026-05-08 19:43 | 51.48071 | 12.00481 | 23604 ft | 446 kts | 59° |
| 2026-05-08 19:43 | 51.49603 | 12.04782 | 22913 ft | 433 kts | 59° |
| 2026-05-08 19:44 | 51.51067 | 12.08903 | 22249 ft | 421 kts | 59° |
| 2026-05-08 19:44 | 51.52507 | 12.12961 | 21629 ft | 419 kts | 59° |
| 2026-05-08 19:44 | 51.53952 | 12.17034 | 21281 ft | 419 kts | 59° |
| 2026-05-08 19:44 | 51.55398 | 12.21118 | 21142 ft | 420 kts | 59° |
| 2026-05-08 19:45 | 51.56839 | 12.25199 | 21143 ft | 419 kts | 59° |
| 2026-05-08 19:45 | 51.58274 | 12.29268 | 21144 ft | 419 kts | 59° |
| 2026-05-08 19:45 | 51.59697 | 12.33308 | 21144 ft | 419 kts | 59° |
| 2026-05-08 19:45 | 51.61148 | 12.37437 | 21136 ft | 419 kts | 59° |
| 2026-05-08 19:46 | 51.62533 | 12.41383 | 21140 ft | 419 kts | 59° |
| 2026-05-08 19:46 | 51.63965 | 12.45470 | 21142 ft | 419 kts | 59° |
| 2026-05-08 19:46 | 51.66822 | 12.53645 | 21139 ft | 419 kts | 59° |
| 2026-05-08 19:47 | 51.68255 | 12.57753 | 21140 ft | 419 kts | 59° |
| 2026-05-08 19:47 | 51.69669 | 12.61814 | 21042 ft | 411 kts | 59° |
| 2026-05-08 19:47 | 51.71047 | 12.65783 | 20469 ft | 400 kts | 59° |
| 2026-05-08 19:47 | 51.72380 | 12.69625 | 19759 ft | 385 kts | 59° |
| 2026-05-08 19:48 | 51.73665 | 12.73335 | 18904 ft | 372 kts | 59° |
| 2026-05-08 19:48 | 51.74910 | 12.76931 | 17869 ft | 365 kts | 59° |
| 2026-05-08 19:48 | 51.76138 | 12.80483 | 16783 ft | 359 kts | 59° |
| 2026-05-08 19:48 | 51.77344 | 12.83979 | 15734 ft | 354 kts | 59° |
| 2026-05-08 19:49 | 51.78536 | 12.87437 | 14959 ft | 350 kts | 59° |
| 2026-05-08 19:49 | 51.79718 | 12.90873 | 14705 ft | 350 kts | 59° |
| 2026-05-08 19:49 | 51.80901 | 12.94315 | 14530 ft | 350 kts | 59° |
| 2026-05-08 19:49 | 51.82076 | 12.97737 | 14445 ft | 347 kts | 59° |
| 2026-05-08 19:50 | 51.83164 | 13.00913 | 14451 ft | 347 kts | 59° |
| 2026-05-08 19:50 | 51.84318 | 13.04285 | 14448 ft | 348 kts | 59° |
| 2026-05-08 19:50 | 51.85503 | 13.07751 | 14444 ft | 348 kts | 59° |
| 2026-05-08 19:50 | 51.86671 | 13.11173 | 14439 ft | 348 kts | 59° |
| 2026-05-08 19:51 | 51.87837 | 13.14595 | 14435 ft | 347 kts | 59° |
| 2026-05-08 19:51 | 51.88997 | 13.18004 | 14264 ft | 342 kts | 59° |
| 2026-05-08 19:51 | 51.90119 | 13.21309 | 13711 ft | 330 kts | 59° |
| 2026-05-08 19:51 | 51.91208 | 13.24517 | 12964 ft | 320 kts | 59° |
| 2026-05-08 19:52 | 51.92266 | 13.27637 | 12197 ft | 311 kts | 59° |
| 2026-05-08 19:52 | 51.93296 | 13.30678 | 11394 ft | 305 kts | 60° |
| 2026-05-08 19:52 | 51.94310 | 13.33677 | 10577 ft | 301 kts | 60° |
| 2026-05-08 19:52 | 51.95307 | 13.36624 | 9757 ft | 296 kts | 60° |
| 2026-05-08 19:53 | 51.96277 | 13.39499 | 8958 ft | 291 kts | 60° |
| 2026-05-08 19:53 | 51.97237 | 13.42348 | 8154 ft | 286 kts | 60° |
| 2026-05-08 19:53 | 51.98315 | 13.45001 | 7636 ft | 279 kts | 44° |
| 2026-05-08 19:53 | 51.99957 | 13.46648 | 7469 ft | 282 kts | 17° |
| 2026-05-08 19:54 | 52.01895 | 13.47018 | 7361 ft | 284 kts | 359° |
| 2026-05-08 19:54 | 52.03871 | 13.46859 | 7345 ft | 284 kts | 355° |
| 2026-05-08 19:54 | 52.05837 | 13.46612 | 7314 ft | 282 kts | 355° |
| 2026-05-08 19:54 | 52.07781 | 13.46354 | 7237 ft | 277 kts | 355° |
| 2026-05-08 19:55 | 52.09684 | 13.46094 | 7174 ft | 272 kts | 355° |
| 2026-05-08 19:55 | 52.11569 | 13.45831 | 7155 ft | 271 kts | 355° |
| 2026-05-08 19:55 | 52.13443 | 13.45433 | 7153 ft | 274 kts | 343° |
| 2026-05-08 19:55 | 52.15094 | 13.43910 | 7150 ft | 278 kts | 315° |
| 2026-05-08 19:56 | 52.16138 | 13.41294 | 7159 ft | 279 kts | 288° |
| 2026-05-08 19:56 | 52.16529 | 13.38195 | 7160 ft | 280 kts | 277° |
| 2026-05-08 19:56 | 52.16736 | 13.35032 | 7159 ft | 280 kts | 275° |
| 2026-05-08 19:56 | 52.16910 | 13.31920 | 7076 ft | 269 kts | 275° |
| 2026-05-08 19:57 | 52.17070 | 13.28960 | 6701 ft | 256 kts | 275° |
| 2026-05-08 19:57 | 52.17218 | 13.26167 | 6181 ft | 247 kts | 275° |
| 2026-05-08 19:57 | 52.17361 | 13.23414 | 5630 ft | 240 kts | 275° |
| 2026-05-08 19:57 | 52.17501 | 13.20671 | 5306 ft | 245 kts | 275° |
| 2026-05-08 19:58 | 52.17681 | 13.17943 | 5154 ft | 244 kts | 285° |
| 2026-05-08 19:58 | 52.18467 | 13.15599 | 5145 ft | 235 kts | 317° |
| 2026-05-08 19:58 | 52.19829 | 13.14147 | 5161 ft | 235 kts | 334° |
| 2026-05-08 19:58 | 52.21293 | 13.12936 | 5162 ft | 237 kts | 334° |
| 2026-05-08 19:59 | 52.22758 | 13.11729 | 5133 ft | 234 kts | 334° |
| 2026-05-08 19:59 | 52.24192 | 13.10550 | 4846 ft | 229 kts | 335° |
| 2026-05-08 19:59 | 52.25619 | 13.09390 | 4342 ft | 230 kts | 338° |
| 2026-05-08 19:59 | 52.27162 | 13.09012 | 4039 ft | 227 kts | 11° |
| 2026-05-08 20:00 | 52.28579 | 13.10067 | 3990 ft | 225 kts | 41° |
| 2026-05-08 20:00 | 52.29336 | 13.12235 | 3980 ft | 224 kts | 80° |
| 2026-05-08 20:00 | 52.29438 | 13.14777 | 3998 ft | 225 kts | 88° |
| 2026-05-08 20:00 | 52.29491 | 13.17300 | 3984 ft | 214 kts | 86° |
| 2026-05-08 20:01 | 52.29787 | 13.19495 | 3984 ft | 185 kts | 70° |
| 2026-05-08 20:01 | 52.30238 | 13.21372 | 3955 ft | 171 kts | 68° |
| 2026-05-08 20:01 | 52.30675 | 13.23132 | 3979 ft | 165 kts | 68° |
| 2026-05-08 20:01 | 52.31111 | 13.24903 | 3990 ft | 166 kts | 68° |
| 2026-05-08 20:02 | 52.31536 | 13.26646 | 4001 ft | 168 kts | 68° |
| 2026-05-08 20:02 | 52.31966 | 13.28419 | 4001 ft | 167 kts | 68° |
| 2026-05-08 20:02 | 52.32396 | 13.30162 | 3993 ft | 165 kts | 68° |
| 2026-05-08 20:02 | 52.32828 | 13.31924 | 3914 ft | 169 kts | 69° |
| 2026-05-08 20:03 | 52.33256 | 13.33714 | 3633 ft | 170 kts | 69° |
| 2026-05-08 20:03 | 52.33681 | 13.35500 | 3145 ft | 166 kts | 69° |
| 2026-05-08 20:03 | 52.34091 | 13.37227 | 2672 ft | 159 kts | 69° |
| 2026-05-08 20:03 | 52.34491 | 13.38909 | 2281 ft | 160 kts | 69° |
| 2026-05-08 20:04 | 52.34897 | 13.40621 | 1834 ft | 163 kts | 69° |
| 2026-05-08 20:04 | 52.35309 | 13.42354 | 1295 ft | 163 kts | 69° |
| 2026-05-08 20:04 | 52.35719 | 13.44080 | 750 ft | 160 kts | 69° |
| 2026-05-08 20:04 | 52.36109 | 13.45721 | 569 ft | 156 kts | 69° |
| 2026-05-08 20:05 | 52.36509 | 13.47409 | 350 ft | 161 kts | 69° |
| 2026-05-08 20:05 | 52.36912 | 13.49106 | 161 ft | 158 kts | 69° |
| 2026-05-08 20:05 | 52.37223 | 13.50435 | 160 ft | 61 kts | 73° |
| 2026-05-08 20:05 | 52.37306 | 13.50828 | 160 ft | 28 kts | 94° |
| 2026-05-08 20:06 | 52.37293 | 13.51145 | 162 ft | 28 kts | 95° |
| 2026-05-08 20:06 | 52.37274 | 13.51285 | 163 ft | 0 kts | 113° |
| 2026-05-08 20:07 | 52.37273 | 13.51286 | 163 ft | 1 kts | 113° |
| 2026-05-08 20:07 | 52.37239 | 13.51363 | 163 ft | 15 kts | 136° |
| 2026-05-08 20:07 | 52.37128 | 13.51367 | 163 ft | 21 kts | 229° |
| 2026-05-08 20:08 | 52.37080 | 13.51209 | 163 ft | 26 kts | 248° |
| 2026-05-08 20:08 | 52.37001 | 13.50890 | 163 ft | 34 kts | 248° |
| 2026-05-08 20:08 | 52.36906 | 13.50496 | 163 ft | 41 kts | 249° |
| 2026-05-08 20:08 | 52.36868 | 13.50337 | 163 ft | 0 kts | 249° |
| 2026-05-08 20:09 | 52.36864 | 13.50322 | 163 ft | 7 kts | 249° |
| 2026-05-08 20:10 | 52.36763 | 13.50210 | 163 ft | 31 kts | 179° |
| 2026-05-08 20:10 | 52.36625 | 13.50289 | 163 ft | 0 kts | 163° |
| 2026-05-08 20:10 | 52.36620 | 13.50291 | 163 ft | 5 kts | 162° |
| 2026-05-08 20:10 | 52.36553 | 13.50360 | 163 ft | 18 kts | 118° |
| 2026-05-08 20:11 | 52.36552 | 13.50409 | 163 ft | 0 kts | 70° |
| 2026-05-08 20:11 | 52.36573 | 13.50474 | 163 ft | 14 kts | 62° |
| 2026-05-08 20:11 | 52.36581 | 13.50496 | 163 ft | 0 kts | 62° |